sensor_id;sensor_type;location;lat;lon;timestamp;P1;durP1;ratioP1;P2;durP2;ratioP2
8584;SDS011;7180;52.742;11.420;2023-07-31T02:45:59;10.03;;;9.30;;
8584;SDS011;7180;52.742;11.420;2023-07-31T02:48:24;11.07;;;10.17;;
8584;SDS011;7180;52.742;11.420;2023-07-31T02:50:50;10.87;;;10.17;;
8584;SDS011;7180;52.742;11.420;2023-07-31T02:53:15;10.70;;;9.90;;
8584;SDS011;7180;52.742;11.420;2023-07-31T02:55:41;10.47;;;9.57;;
8584;SDS011;7180;52.742;11.420;2023-07-31T02:58:06;11.30;;;10.47;;
8584;SDS011;7180;52.742;11.420;2023-07-31T03:00:31;10.93;;;10.20;;
8584;SDS011;7180;52.742;11.420;2023-07-31T03:02:57;11.20;;;10.40;;
8584;SDS011;7180;52.742;11.420;2023-07-31T03:05:23;11.47;;;10.70;;
8584;SDS011;7180;52.742;11.420;2023-07-31T03:28:29;11.07;;;10.13;;
8584;SDS011;7180;52.742;11.420;2023-07-31T03:30:54;11.60;;;10.67;;
8584;SDS011;7180;52.742;11.420;2023-07-31T03:33:20;10.67;;;9.97;;
8584;SDS011;7180;52.742;11.420;2023-07-31T03:35:45;10.97;;;10.27;;
8584;SDS011;7180;52.742;11.420;2023-07-31T03:38:11;11.23;;;10.53;;
8584;SDS011;7180;52.742;11.420;2023-07-31T03:40:36;11.17;;;10.30;;
8584;SDS011;7180;52.742;11.420;2023-07-31T03:43:01;11.03;;;10.13;;
8584;SDS011;7180;52.742;11.420;2023-07-31T03:45:27;10.80;;;9.90;;
8584;SDS011;7180;52.742;11.420;2023-07-31T03:47:52;10.47;;;9.63;;
8584;SDS011;7180;52.742;11.420;2023-07-31T03:50:19;11.27;;;10.37;;
8584;SDS011;7180;52.742;11.420;2023-07-31T03:52:44;10.30;;;9.60;;
8584;SDS011;7180;52.742;11.420;2023-07-31T03:55:10;10.87;;;10.10;;
8584;SDS011;7180;52.742;11.420;2023-07-31T03:57:35;11.80;;;10.90;;
8584;SDS011;7180;52.742;11.420;2023-07-31T04:00:00;11.27;;;10.40;;
8584;SDS011;7180;52.742;11.420;2023-07-31T04:02:26;10.90;;;10.23;;
8584;SDS011;7180;52.742;11.420;2023-07-31T04:04:51;10.97;;;10.17;;
8584;SDS011;7180;52.742;11.420;2023-07-31T04:07:16;11.20;;;10.30;;
8584;SDS011;7180;52.742;11.420;2023-07-31T04:09:43;10.90;;;10.20;;
8584;SDS011;7180;52.742;11.420;2023-07-31T04:12:20;10.70;;;10.00;;
8584;SDS011;7180;52.742;11.420;2023-07-31T04:14:47;11.07;;;10.30;;
8584;SDS011;7180;52.742;11.420;2023-07-31T04:17:12;10.90;;;10.20;;
8584;SDS011;7180;52.742;11.420;2023-07-31T04:19:38;11.37;;;10.50;;
8584;SDS011;7180;52.742;11.420;2023-07-31T04:22:04;11.83;;;11.03;;
8584;SDS011;7180;52.742;11.420;2023-07-31T04:24:33;11.60;;;10.90;;
8584;SDS011;7180;52.742;11.420;2023-07-31T04:26:58;11.47;;;10.77;;
8584;SDS011;7180;52.742;11.420;2023-07-31T04:29:24;11.63;;;10.73;;
8584;SDS011;7180;52.742;11.420;2023-07-31T04:31:55;12.10;;;11.30;;
8584;SDS011;7180;52.742;11.420;2023-07-31T04:34:22;11.97;;;11.03;;
8584;SDS011;7180;52.742;11.420;2023-07-31T04:36:48;11.93;;;11.03;;
8584;SDS011;7180;52.742;11.420;2023-07-31T04:39:21;11.93;;;11.23;;
8584;SDS011;7180;52.742;11.420;2023-07-31T04:41:48;11.43;;;10.63;;
8584;SDS011;7180;52.742;11.420;2023-07-31T04:44:14;12.00;;;11.10;;
8584;SDS011;7180;52.742;11.420;2023-07-31T04:46:39;11.80;;;11.00;;
8584;SDS011;7180;52.742;11.420;2023-07-31T04:49:04;11.90;;;11.13;;
8584;SDS011;7180;52.742;11.420;2023-07-31T04:51:30;11.53;;;10.73;;
8584;SDS011;7180;52.742;11.420;2023-07-31T04:53:56;12.47;;;11.37;;
8584;SDS011;7180;52.742;11.420;2023-07-31T05:12:45;12.17;;;11.27;;
8584;SDS011;7180;52.742;11.420;2023-07-31T05:22:14;11.17;;;10.37;;
8584;SDS011;7180;52.742;11.420;2023-07-31T05:25:25;11.63;;;10.83;;
8584;SDS011;7180;52.742;11.420;2023-07-31T05:27:53;11.37;;;10.53;;
8584;SDS011;7180;52.742;11.420;2023-07-31T05:30:19;11.63;;;10.83;;
8584;SDS011;7180;52.742;11.420;2023-07-31T05:32:44;12.17;;;11.27;;
8584;SDS011;7180;52.742;11.420;2023-07-31T05:35:10;11.63;;;10.93;;
8584;SDS011;7180;52.742;11.420;2023-07-31T05:37:35;12.17;;;11.27;;
8584;SDS011;7180;52.742;11.420;2023-07-31T05:40:01;11.60;;;10.90;;
8584;SDS011;7180;52.742;11.420;2023-07-31T05:45:22;12.13;;;11.43;;
8584;SDS011;7180;52.742;11.420;2023-07-31T05:47:48;11.50;;;10.80;;
8584;SDS011;7180;52.742;11.420;2023-07-31T05:50:13;10.53;;;9.93;;
8584;SDS011;7180;52.742;11.420;2023-07-31T06:10:38;10.83;;;10.00;;
8584;SDS011;7180;52.742;11.420;2023-07-31T06:52:41;9.87;;;9.20;;
8584;SDS011;7180;52.742;11.420;2023-07-31T06:55:19;11.13;;;10.43;;
8584;SDS011;7180;52.742;11.420;2023-07-31T06:57:46;9.40;;;8.90;;
8584;SDS011;7180;52.742;11.420;2023-07-31T07:00:13;9.67;;;9.17;;
8584;SDS011;7180;52.742;11.420;2023-07-31T07:02:39;9.40;;;9.00;;
8584;SDS011;7180;52.742;11.420;2023-07-31T07:05:04;8.53;;;8.13;;
8584;SDS011;7180;52.742;11.420;2023-07-31T07:07:30;8.67;;;8.27;;
8584;SDS011;7180;52.742;11.420;2023-07-31T07:10:08;8.57;;;8.17;;
8584;SDS011;7180;52.742;11.420;2023-07-31T07:12:34;9.50;;;9.00;;
8584;SDS011;7180;52.742;11.420;2023-07-31T07:15:00;9.33;;;8.83;;
8584;SDS011;7180;52.742;11.420;2023-07-31T07:25:04;8.10;;;7.70;;
8584;SDS011;7180;52.742;11.420;2023-07-31T07:27:31;8.90;;;8.40;;
8584;SDS011;7180;52.742;11.420;2023-07-31T07:36:42;8.80;;;8.40;;
8584;SDS011;7180;52.742;11.420;2023-07-31T07:39:08;9.40;;;8.70;;
8584;SDS011;7180;52.742;11.420;2023-07-31T07:41:37;8.83;;;8.43;;
8584;SDS011;7180;52.742;11.420;2023-07-31T07:44:02;9.30;;;8.80;;
8584;SDS011;7180;52.742;11.420;2023-07-31T07:46:27;8.67;;;8.17;;
8584;SDS011;7180;52.742;11.420;2023-07-31T07:48:53;7.80;;;7.50;;
8584;SDS011;7180;52.742;11.420;2023-07-31T07:51:18;9.30;;;8.80;;
8584;SDS011;7180;52.742;11.420;2023-07-31T07:53:43;8.07;;;7.67;;
8584;SDS011;7180;52.742;11.420;2023-07-31T07:56:09;8.57;;;8.17;;
8584;SDS011;7180;52.742;11.420;2023-07-31T07:58:36;8.17;;;7.67;;
8584;SDS011;7180;52.742;11.420;2023-07-31T08:01:04;8.40;;;7.90;;
8584;SDS011;7180;52.742;11.420;2023-07-31T08:03:33;7.97;;;7.57;;
8584;SDS011;7180;52.742;11.420;2023-07-31T08:05:59;7.20;;;6.90;;
8584;SDS011;7180;52.742;11.420;2023-07-31T08:08:25;7.30;;;7.00;;
8584;SDS011;7180;52.742;11.420;2023-07-31T08:13:25;8.80;;;8.30;;
8584;SDS011;7180;52.742;11.420;2023-07-31T08:15:54;8.47;;;8.07;;
8584;SDS011;7180;52.742;11.420;2023-07-31T08:18:21;7.90;;;7.40;;
8584;SDS011;7180;52.742;11.420;2023-07-31T08:20:47;7.80;;;7.40;;
8584;SDS011;7180;52.742;11.420;2023-07-31T08:23:13;8.53;;;8.13;;
8584;SDS011;7180;52.742;11.420;2023-07-31T08:25:38;9.30;;;8.70;;
8584;SDS011;7180;52.742;11.420;2023-07-31T08:28:07;8.93;;;8.43;;
8584;SDS011;7180;52.742;11.420;2023-07-31T08:31:15;8.03;;;7.53;;
8584;SDS011;7180;52.742;11.420;2023-07-31T08:33:48;8.00;;;7.60;;
8584;SDS011;7180;52.742;11.420;2023-07-31T08:42:31;9.30;;;8.70;;
8584;SDS011;7180;52.742;11.420;2023-07-31T08:44:58;8.63;;;8.13;;
8584;SDS011;7180;52.742;11.420;2023-07-31T08:47:28;9.20;;;8.60;;
8584;SDS011;7180;52.742;11.420;2023-07-31T08:49:56;9.53;;;9.03;;
8584;SDS011;7180;52.742;11.420;2023-07-31T08:52:25;9.63;;;9.13;;
8584;SDS011;7180;52.742;11.420;2023-07-31T08:54:50;9.10;;;8.60;;
8584;SDS011;7180;52.742;11.420;2023-07-31T08:57:16;9.03;;;8.53;;
8584;SDS011;7180;52.742;11.420;2023-07-31T08:59:43;9.90;;;9.30;;
8584;SDS011;7180;52.742;11.420;2023-07-31T09:02:10;10.83;;;10.13;;
8584;SDS011;7180;52.742;11.420;2023-07-31T09:04:40;9.70;;;9.00;;
8584;SDS011;7180;52.742;11.420;2023-07-31T09:07:05;10.97;;;10.20;;
8584;SDS011;7180;52.742;11.420;2023-07-31T09:09:33;10.80;;;10.10;;
8584;SDS011;7180;52.742;11.420;2023-07-31T09:12:01;12.03;;;11.20;;
8584;SDS011;7180;52.742;11.420;2023-07-31T09:14:26;12.23;;;11.30;;
8584;SDS011;7180;52.742;11.420;2023-07-31T09:16:54;13.30;;;12.40;;
8584;SDS011;7180;52.742;11.420;2023-07-31T09:19:25;13.33;;;12.43;;
8584;SDS011;7180;52.742;11.420;2023-07-31T09:21:51;13.80;;;12.80;;
8584;SDS011;7180;52.742;11.420;2023-07-31T09:24:27;13.77;;;12.77;;
8584;SDS011;7180;52.742;11.420;2023-07-31T09:26:53;13.93;;;12.90;;
8584;SDS011;7180;52.742;11.420;2023-07-31T09:29:23;13.80;;;12.90;;
8584;SDS011;7180;52.742;11.420;2023-07-31T09:31:50;14.77;;;13.70;;
8584;SDS011;7180;52.742;11.420;2023-07-31T09:34:16;14.93;;;13.60;;
8584;SDS011;7180;52.742;11.420;2023-07-31T09:36:48;14.10;;;13.10;;
8584;SDS011;7180;52.742;11.420;2023-07-31T09:39:16;14.53;;;13.43;;
8584;SDS011;7180;52.742;11.420;2023-07-31T09:41:43;14.73;;;13.63;;
8584;SDS011;7180;52.742;11.420;2023-07-31T09:44:10;14.40;;;13.20;;
8584;SDS011;7180;52.742;11.420;2023-07-31T09:46:35;14.30;;;13.20;;
8584;SDS011;7180;52.742;11.420;2023-07-31T09:49:04;14.60;;;13.50;;
8584;SDS011;7180;52.742;11.420;2023-07-31T09:51:31;15.20;;;14.00;;
8584;SDS011;7180;52.742;11.420;2023-07-31T09:53:57;15.17;;;13.90;;
8584;SDS011;7180;52.742;11.420;2023-07-31T09:56:29;15.20;;;13.90;;
8584;SDS011;7180;52.742;11.420;2023-07-31T09:59:58;14.90;;;13.70;;
8584;SDS011;7180;52.742;11.420;2023-07-31T10:02:57;14.00;;;13.00;;
8584;SDS011;7180;52.742;11.420;2023-07-31T10:05:27;13.30;;;12.37;;
8584;SDS011;7180;52.742;11.420;2023-07-31T10:08:00;14.47;;;13.33;;
8584;SDS011;7180;52.742;11.420;2023-07-31T10:10:41;15.13;;;14.03;;
8584;SDS011;7180;52.742;11.420;2023-07-31T10:13:08;15.47;;;14.27;;
8584;SDS011;7180;52.742;11.420;2023-07-31T10:15:34;15.40;;;14.20;;
8584;SDS011;7180;52.742;11.420;2023-07-31T10:18:01;13.33;;;12.27;;
8584;SDS011;7180;52.742;11.420;2023-07-31T10:20:27;13.67;;;12.43;;
8584;SDS011;7180;52.742;11.420;2023-07-31T10:22:56;13.37;;;12.40;;
8584;SDS011;7180;52.742;11.420;2023-07-31T10:25:24;13.43;;;12.43;;
8584;SDS011;7180;52.742;11.420;2023-07-31T10:27:51;13.43;;;12.43;;
8584;SDS011;7180;52.742;11.420;2023-07-31T10:30:18;13.67;;;12.57;;
8584;SDS011;7180;52.742;11.420;2023-07-31T10:32:51;13.13;;;11.87;;
8584;SDS011;7180;52.742;11.420;2023-07-31T10:35:18;12.63;;;11.53;;
8584;SDS011;7180;52.742;11.420;2023-07-31T10:37:47;11.70;;;10.90;;
8584;SDS011;7180;52.742;11.420;2023-07-31T10:40:15;11.83;;;11.03;;
8584;SDS011;7180;52.742;11.420;2023-07-31T10:42:51;12.10;;;11.30;;
8584;SDS011;7180;52.742;11.420;2023-07-31T10:45:25;12.70;;;11.80;;
8584;SDS011;7180;52.742;11.420;2023-07-31T10:47:57;12.70;;;11.80;;
8584;SDS011;7180;52.742;11.420;2023-07-31T10:50:31;11.93;;;11.23;;
8584;SDS011;7180;52.742;11.420;2023-07-31T10:53:30;12.70;;;11.67;;
8584;SDS011;7180;52.742;11.420;2023-07-31T10:58:29;11.40;;;10.40;;
8584;SDS011;7180;52.742;11.420;2023-07-31T11:00:57;11.70;;;10.87;;
8584;SDS011;7180;52.742;11.420;2023-07-31T11:04:09;12.27;;;11.10;;
8584;SDS011;7180;52.742;11.420;2023-07-31T11:06:17;12.20;;;11.23;;
8584;SDS011;7180;52.742;11.420;2023-07-31T11:08:43;11.80;;;11.10;;
8584;SDS011;7180;52.742;11.420;2023-07-31T11:11:12;11.27;;;10.47;;
8584;SDS011;7180;52.742;11.420;2023-07-31T11:13:40;12.33;;;11.43;;
8584;SDS011;7180;52.742;11.420;2023-07-31T11:16:08;11.50;;;10.80;;
8584;SDS011;7180;52.742;11.420;2023-07-31T11:18:35;11.80;;;10.77;;
8584;SDS011;7180;52.742;11.420;2023-07-31T11:21:02;10.27;;;9.50;;
8584;SDS011;7180;52.742;11.420;2023-07-31T11:23:28;10.73;;;10.03;;
8584;SDS011;7180;52.742;11.420;2023-07-31T11:25:53;12.23;;;11.27;;
8584;SDS011;7180;52.742;11.420;2023-07-31T11:28:24;11.77;;;11.00;;
8584;SDS011;7180;52.742;11.420;2023-07-31T11:30:49;11.93;;;11.23;;
8584;SDS011;7180;52.742;11.420;2023-07-31T11:33:15;11.50;;;10.70;;
8584;SDS011;7180;52.742;11.420;2023-07-31T11:35:49;11.03;;;10.23;;
8584;SDS011;7180;52.742;11.420;2023-07-31T11:38:22;9.27;;;8.67;;
8584;SDS011;7180;52.742;11.420;2023-07-31T11:40:51;10.80;;;10.13;;
8584;SDS011;7180;52.742;11.420;2023-07-31T11:43:21;10.70;;;10.00;;
8584;SDS011;7180;52.742;11.420;2023-07-31T11:45:51;10.27;;;9.67;;
8584;SDS011;7180;52.742;11.420;2023-07-31T11:48:21;10.30;;;9.70;;
8584;SDS011;7180;52.742;11.420;2023-07-31T11:50:51;10.20;;;9.60;;
8584;SDS011;7180;52.742;11.420;2023-07-31T11:53:20;10.30;;;9.60;;
8584;SDS011;7180;52.742;11.420;2023-07-31T11:55:50;10.40;;;9.70;;
8584;SDS011;7180;52.742;11.420;2023-07-31T11:58:16;9.90;;;9.40;;
8584;SDS011;7180;52.742;11.420;2023-07-31T12:00:43;9.60;;;9.00;;
8584;SDS011;7180;52.742;11.420;2023-07-31T12:03:08;9.37;;;8.80;;
8584;SDS011;7180;52.742;11.420;2023-07-31T12:05:34;10.63;;;9.90;;
8584;SDS011;7180;52.742;11.420;2023-07-31T12:08:01;10.30;;;9.70;;
8584;SDS011;7180;52.742;11.420;2023-07-31T12:10:34;10.33;;;9.63;;
8584;SDS011;7180;52.742;11.420;2023-07-31T12:18:50;10.30;;;9.70;;
8584;SDS011;7180;52.742;11.420;2023-07-31T12:22:41;10.63;;;9.83;;
8584;SDS011;7180;52.742;11.420;2023-07-31T12:26:17;9.87;;;9.10;;
8584;SDS011;7180;52.742;11.420;2023-07-31T12:28:44;10.77;;;9.80;;
8584;SDS011;7180;52.742;11.420;2023-07-31T12:31:12;10.67;;;10.07;;
8584;SDS011;7180;52.742;11.420;2023-07-31T12:33:39;10.47;;;9.87;;
8584;SDS011;7180;52.742;11.420;2023-07-31T12:36:09;10.93;;;10.23;;
8584;SDS011;7180;52.742;11.420;2023-07-31T12:38:36;10.20;;;9.60;;
8584;SDS011;7180;52.742;11.420;2023-07-31T12:41:02;9.60;;;9.00;;
8584;SDS011;7180;52.742;11.420;2023-07-31T12:43:27;10.20;;;9.60;;
8584;SDS011;7180;52.742;11.420;2023-07-31T12:45:56;9.03;;;8.40;;
8584;SDS011;7180;52.742;11.420;2023-07-31T12:48:21;8.67;;;8.17;;
8584;SDS011;7180;52.742;11.420;2023-07-31T12:50:47;10.00;;;9.30;;
8584;SDS011;7180;52.742;11.420;2023-07-31T12:53:12;9.77;;;9.17;;
8584;SDS011;7180;52.742;11.420;2023-07-31T12:55:38;10.40;;;9.70;;
8584;SDS011;7180;52.742;11.420;2023-07-31T12:58:03;9.93;;;9.03;;
8584;SDS011;7180;52.742;11.420;2023-07-31T13:00:29;10.80;;;10.10;;
8584;SDS011;7180;52.742;11.420;2023-07-31T13:02:54;9.87;;;9.27;;
8584;SDS011;7180;52.742;11.420;2023-07-31T13:05:20;10.93;;;10.30;;
8584;SDS011;7180;52.742;11.420;2023-07-31T13:07:45;9.90;;;9.30;;
8584;SDS011;7180;52.742;11.420;2023-07-31T13:10:11;10.23;;;9.67;;
8584;SDS011;7180;52.742;11.420;2023-07-31T13:12:37;11.03;;;10.43;;
8584;SDS011;7180;52.742;11.420;2023-07-31T13:15:06;10.77;;;10.00;;
8584;SDS011;7180;52.742;11.420;2023-07-31T13:17:32;10.03;;;9.37;;
8584;SDS011;7180;52.742;11.420;2023-07-31T13:19:58;10.70;;;9.90;;
8584;SDS011;7180;52.742;11.420;2023-07-31T13:22:25;10.07;;;9.53;;
8584;SDS011;7180;52.742;11.420;2023-07-31T13:24:51;9.20;;;8.80;;
8584;SDS011;7180;52.742;11.420;2023-07-31T13:27:17;9.67;;;9.17;;
8584;SDS011;7180;52.742;11.420;2023-07-31T13:29:45;9.80;;;9.30;;
8584;SDS011;7180;52.742;11.420;2023-07-31T13:32:11;8.53;;;8.03;;
8584;SDS011;7180;52.742;11.420;2023-07-31T13:34:36;9.43;;;8.93;;
8584;SDS011;7180;52.742;11.420;2023-07-31T13:37:01;9.67;;;9.13;;
8584;SDS011;7180;52.742;11.420;2023-07-31T13:39:27;8.90;;;8.50;;
8584;SDS011;7180;52.742;11.420;2023-07-31T13:41:52;9.37;;;8.87;;
8584;SDS011;7180;52.742;11.420;2023-07-31T13:44:30;8.77;;;8.37;;
8584;SDS011;7180;52.742;11.420;2023-07-31T13:47:00;10.13;;;9.33;;
8584;SDS011;7180;52.742;11.420;2023-07-31T13:49:32;9.77;;;9.27;;
8584;SDS011;7180;52.742;11.420;2023-07-31T13:51:58;9.90;;;9.30;;
8584;SDS011;7180;52.742;11.420;2023-07-31T13:54:23;9.47;;;8.97;;
8584;SDS011;7180;52.742;11.420;2023-07-31T13:56:49;9.50;;;9.00;;
8584;SDS011;7180;52.742;11.420;2023-07-31T13:59:15;10.47;;;9.87;;
8584;SDS011;7180;52.742;11.420;2023-07-31T14:01:41;9.60;;;9.10;;
8584;SDS011;7180;52.742;11.420;2023-07-31T14:04:07;9.90;;;9.30;;
8584;SDS011;7180;52.742;11.420;2023-07-31T14:06:32;9.93;;;9.33;;
8584;SDS011;7180;52.742;11.420;2023-07-31T14:08:57;10.67;;;10.00;;
8584;SDS011;7180;52.742;11.420;2023-07-31T14:11:23;11.40;;;10.70;;
8584;SDS011;7180;52.742;11.420;2023-07-31T14:13:49;11.43;;;10.73;;
8584;SDS011;7180;52.742;11.420;2023-07-31T14:16:16;11.03;;;10.13;;
8584;SDS011;7180;52.742;11.420;2023-07-31T14:18:42;9.97;;;9.47;;
8584;SDS011;7180;52.742;11.420;2023-07-31T14:21:08;10.87;;;10.27;;
8584;SDS011;7180;52.742;11.420;2023-07-31T14:23:39;11.30;;;10.70;;
8584;SDS011;7180;52.742;11.420;2023-07-31T14:26:07;11.60;;;10.70;;
8584;SDS011;7180;52.742;11.420;2023-07-31T14:28:33;11.13;;;10.53;;
8584;SDS011;7180;52.742;11.420;2023-07-31T14:30:58;10.73;;;10.07;;
8584;SDS011;7180;52.742;11.420;2023-07-31T14:33:24;9.40;;;8.80;;
8584;SDS011;7180;52.742;11.420;2023-07-31T14:35:49;9.60;;;9.03;;
8584;SDS011;7180;52.742;11.420;2023-07-31T14:38:15;9.70;;;9.10;;
8584;SDS011;7180;52.742;11.420;2023-07-31T14:40:41;9.67;;;9.17;;
8584;SDS011;7180;52.742;11.420;2023-07-31T14:43:06;9.90;;;9.23;;
8584;SDS011;7180;52.742;11.420;2023-07-31T14:45:31;10.00;;;9.40;;
8584;SDS011;7180;52.742;11.420;2023-07-31T14:47:57;9.40;;;8.90;;
8584;SDS011;7180;52.742;11.420;2023-07-31T14:50:22;9.60;;;9.10;;
8584;SDS011;7180;52.742;11.420;2023-07-31T14:52:48;9.40;;;8.87;;
8584;SDS011;7180;52.742;11.420;2023-07-31T14:55:14;9.23;;;8.73;;
8584;SDS011;7180;52.742;11.420;2023-07-31T14:57:39;8.60;;;8.20;;
8584;SDS011;7180;52.742;11.420;2023-07-31T15:00:06;8.73;;;8.30;;
8584;SDS011;7180;52.742;11.420;2023-07-31T15:02:36;9.40;;;8.90;;
8584;SDS011;7180;52.742;11.420;2023-07-31T15:05:04;8.40;;;7.90;;
8584;SDS011;7180;52.742;11.420;2023-07-31T15:07:30;8.70;;;8.20;;
8584;SDS011;7180;52.742;11.420;2023-07-31T15:09:56;8.27;;;7.87;;
8584;SDS011;7180;52.742;11.420;2023-07-31T15:12:21;8.13;;;7.73;;
8584;SDS011;7180;52.742;11.420;2023-07-31T15:14:48;8.30;;;7.90;;
8584;SDS011;7180;52.742;11.420;2023-07-31T15:17:13;8.50;;;8.10;;
8584;SDS011;7180;52.742;11.420;2023-07-31T15:19:39;9.00;;;8.50;;
8584;SDS011;7180;52.742;11.420;2023-07-31T15:22:04;8.63;;;8.23;;
8584;SDS011;7180;52.742;11.420;2023-07-31T15:24:30;7.73;;;7.33;;
8584;SDS011;7180;52.742;11.420;2023-07-31T15:26:56;8.13;;;7.63;;
8584;SDS011;7180;52.742;11.420;2023-07-31T15:29:21;7.53;;;7.20;;
8584;SDS011;7180;52.742;11.420;2023-07-31T15:31:47;8.00;;;7.60;;
8584;SDS011;7180;52.742;11.420;2023-07-31T15:34:13;8.40;;;8.00;;
8584;SDS011;7180;52.742;11.420;2023-07-31T15:36:39;7.80;;;7.40;;
8584;SDS011;7180;52.742;11.420;2023-07-31T15:39:05;9.50;;;8.90;;
8584;SDS011;7180;52.742;11.420;2023-07-31T15:41:33;9.17;;;8.73;;
8584;SDS011;7180;52.742;11.420;2023-07-31T15:43:59;9.50;;;9.00;;
8584;SDS011;7180;52.742;11.420;2023-07-31T15:46:24;9.47;;;9.07;;
8584;SDS011;7180;52.742;11.420;2023-07-31T15:48:49;8.60;;;8.20;;
8584;SDS011;7180;52.742;11.420;2023-07-31T15:51:15;8.23;;;7.83;;
8584;SDS011;7180;52.742;11.420;2023-07-31T15:53:40;9.33;;;8.93;;
8584;SDS011;7180;52.742;11.420;2023-07-31T15:56:06;9.73;;;9.13;;
8584;SDS011;7180;52.742;11.420;2023-07-31T15:58:31;9.30;;;8.90;;
8584;SDS011;7180;52.742;11.420;2023-07-31T16:00:57;9.37;;;8.87;;
8584;SDS011;7180;52.742;11.420;2023-07-31T16:03:23;9.13;;;8.73;;
8584;SDS011;7180;52.742;11.420;2023-07-31T16:05:48;9.40;;;8.80;;
8584;SDS011;7180;52.742;11.420;2023-07-31T16:08:13;9.17;;;8.77;;
8584;SDS011;7180;52.742;11.420;2023-07-31T16:10:39;8.90;;;8.50;;
8584;SDS011;7180;52.742;11.420;2023-07-31T16:13:04;8.90;;;8.40;;
8584;SDS011;7180;52.742;11.420;2023-07-31T16:15:30;8.83;;;8.43;;
8584;SDS011;7180;52.742;11.420;2023-07-31T16:17:55;7.87;;;7.47;;
8584;SDS011;7180;52.742;11.420;2023-07-31T16:20:20;8.60;;;8.13;;
8584;SDS011;7180;52.742;11.420;2023-07-31T16:22:46;8.50;;;8.10;;
8584;SDS011;7180;52.742;11.420;2023-07-31T16:25:11;8.60;;;8.00;;
8584;SDS011;7180;52.742;11.420;2023-07-31T16:27:37;9.07;;;8.47;;
8584;SDS011;7180;52.742;11.420;2023-07-31T16:30:02;8.40;;;8.00;;
8584;SDS011;7180;52.742;11.420;2023-07-31T16:32:28;8.50;;;8.10;;
8584;SDS011;7180;52.742;11.420;2023-07-31T16:34:54;8.40;;;8.00;;
8584;SDS011;7180;52.742;11.420;2023-07-31T16:37:19;8.37;;;7.97;;
8584;SDS011;7180;52.742;11.420;2023-07-31T16:39:45;8.40;;;8.10;;
8584;SDS011;7180;52.742;11.420;2023-07-31T16:42:13;8.50;;;8.00;;
8584;SDS011;7180;52.742;11.420;2023-07-31T16:44:39;8.20;;;7.80;;
8584;SDS011;7180;52.742;11.420;2023-07-31T16:47:04;8.20;;;7.80;;
8584;SDS011;7180;52.742;11.420;2023-07-31T16:49:30;8.65;;;8.15;;
8584;SDS011;7180;52.742;11.420;2023-07-31T16:51:55;7.80;;;7.30;;
8584;SDS011;7180;52.742;11.420;2023-07-31T16:54:22;8.23;;;7.70;;
8584;SDS011;7180;52.742;11.420;2023-07-31T16:56:47;7.60;;;7.30;;
8584;SDS011;7180;52.742;11.420;2023-07-31T16:59:14;8.60;;;8.10;;
8584;SDS011;7180;52.742;11.420;2023-07-31T17:01:40;8.37;;;7.97;;
8584;SDS011;7180;52.742;11.420;2023-07-31T17:04:06;8.20;;;7.80;;
8584;SDS011;7180;52.742;11.420;2023-07-31T17:06:31;8.30;;;7.90;;
8584;SDS011;7180;52.742;11.420;2023-07-31T17:08:56;8.50;;;8.00;;
8584;SDS011;7180;52.742;11.420;2023-07-31T17:11:22;9.20;;;8.80;;
8584;SDS011;7180;52.742;11.420;2023-07-31T17:13:48;9.27;;;8.73;;
8584;SDS011;7180;52.742;11.420;2023-07-31T17:16:19;8.77;;;8.37;;
8584;SDS011;7180;52.742;11.420;2023-07-31T17:18:45;8.00;;;7.60;;
8584;SDS011;7180;52.742;11.420;2023-07-31T17:21:11;7.80;;;7.47;;
8584;SDS011;7180;52.742;11.420;2023-07-31T17:23:36;8.63;;;8.13;;
8584;SDS011;7180;52.742;11.420;2023-07-31T17:26:01;8.73;;;8.23;;
8584;SDS011;7180;52.742;11.420;2023-07-31T17:28:27;8.10;;;7.70;;
8584;SDS011;7180;52.742;11.420;2023-07-31T17:30:52;8.70;;;8.30;;
8584;SDS011;7180;52.742;11.420;2023-07-31T17:33:17;9.47;;;8.97;;
8584;SDS011;7180;52.742;11.420;2023-07-31T17:35:43;9.13;;;8.63;;
8584;SDS011;7180;52.742;11.420;2023-07-31T17:38:09;8.77;;;8.37;;
8584;SDS011;7180;52.742;11.420;2023-07-31T17:40:34;8.77;;;8.27;;
8584;SDS011;7180;52.742;11.420;2023-07-31T17:42:59;8.77;;;8.37;;
8584;SDS011;7180;52.742;11.420;2023-07-31T17:45:25;9.17;;;8.77;;
8584;SDS011;7180;52.742;11.420;2023-07-31T17:47:53;9.90;;;9.20;;
8584;SDS011;7180;52.742;11.420;2023-07-31T17:50:19;9.10;;;8.70;;
8584;SDS011;7180;52.742;11.420;2023-07-31T17:56:08;9.50;;;9.00;;
8584;SDS011;7180;52.742;11.420;2023-07-31T18:01:55;9.73;;;9.23;;
8584;SDS011;7180;52.742;11.420;2023-07-31T18:07:21;9.73;;;9.13;;
8584;SDS011;7180;52.742;11.420;2023-07-31T18:09:46;9.67;;;9.17;;
8584;SDS011;7180;52.742;11.420;2023-07-31T18:12:11;9.50;;;9.00;;
8584;SDS011;7180;52.742;11.420;2023-07-31T18:14:36;9.47;;;9.07;;
8584;SDS011;7180;52.742;11.420;2023-07-31T18:17:04;9.30;;;8.70;;
8584;SDS011;7180;52.742;11.420;2023-07-31T18:19:29;9.97;;;9.47;;
8584;SDS011;7180;52.742;11.420;2023-07-31T18:21:55;9.67;;;9.07;;
8584;SDS011;7180;52.742;11.420;2023-07-31T18:24:20;9.30;;;8.90;;
8584;SDS011;7180;52.742;11.420;2023-07-31T18:26:46;9.43;;;8.93;;
8584;SDS011;7180;52.742;11.420;2023-07-31T18:29:11;10.13;;;9.60;;
8584;SDS011;7180;52.742;11.420;2023-07-31T18:31:37;10.27;;;9.67;;
8584;SDS011;7180;52.742;11.420;2023-07-31T18:34:02;9.90;;;9.40;;
8584;SDS011;7180;52.742;11.420;2023-07-31T18:36:27;10.10;;;9.40;;
8584;SDS011;7180;52.742;11.420;2023-07-31T18:38:53;10.10;;;9.60;;
8584;SDS011;7180;52.742;11.420;2023-07-31T18:41:21;10.03;;;9.43;;
8584;SDS011;7180;52.742;11.420;2023-07-31T18:43:47;10.03;;;9.53;;
8584;SDS011;7180;52.742;11.420;2023-07-31T18:46:12;10.00;;;9.37;;
8584;SDS011;7180;52.742;11.420;2023-07-31T18:48:39;10.53;;;9.93;;
8584;SDS011;7180;52.742;11.420;2023-07-31T18:51:04;9.73;;;9.23;;
8584;SDS011;7180;52.742;11.420;2023-07-31T18:53:29;10.10;;;9.60;;
8584;SDS011;7180;52.742;11.420;2023-07-31T18:55:55;10.47;;;9.70;;
8584;SDS011;7180;52.742;11.420;2023-07-31T18:58:20;10.00;;;9.40;;
8584;SDS011;7180;52.742;11.420;2023-07-31T19:00:46;9.93;;;9.43;;
8584;SDS011;7180;52.742;11.420;2023-07-31T19:03:11;10.07;;;9.47;;
8584;SDS011;7180;52.742;11.420;2023-07-31T19:05:38;10.07;;;9.57;;
8584;SDS011;7180;52.742;11.420;2023-07-31T19:08:04;10.20;;;9.60;;
8584;SDS011;7180;52.742;11.420;2023-07-31T19:10:33;9.37;;;8.90;;
8584;SDS011;7180;52.742;11.420;2023-07-31T19:13:00;9.80;;;9.30;;
8584;SDS011;7180;52.742;11.420;2023-07-31T19:15:26;9.33;;;8.77;;
8584;SDS011;7180;52.742;11.420;2023-07-31T19:17:56;9.50;;;9.00;;
8584;SDS011;7180;52.742;11.420;2023-07-31T19:20:22;9.77;;;9.17;;
8584;SDS011;7180;52.742;11.420;2023-07-31T19:22:47;9.37;;;8.87;;
8584;SDS011;7180;52.742;11.420;2023-07-31T19:25:13;9.60;;;9.10;;
8584;SDS011;7180;52.742;11.420;2023-07-31T19:27:38;9.87;;;9.07;;
8584;SDS011;7180;52.742;11.420;2023-07-31T19:30:06;10.10;;;9.60;;
8584;SDS011;7180;52.742;11.420;2023-07-31T19:32:32;9.90;;;9.40;;
8584;SDS011;7180;52.742;11.420;2023-07-31T19:34:58;9.90;;;9.20;;
8584;SDS011;7180;52.742;11.420;2023-07-31T19:37:23;10.40;;;9.80;;
8584;SDS011;7180;52.742;11.420;2023-07-31T19:39:48;9.93;;;9.43;;
8584;SDS011;7180;52.742;11.420;2023-07-31T19:52:36;10.10;;;9.60;;
8584;SDS011;7180;52.742;11.420;2023-07-31T19:55:10;10.00;;;9.40;;
8584;SDS011;7180;52.742;11.420;2023-07-31T19:57:39;9.90;;;9.40;;
8584;SDS011;7180;52.742;11.420;2023-07-31T20:00:04;10.10;;;9.60;;
8584;SDS011;7180;52.742;11.420;2023-07-31T20:02:31;10.23;;;9.63;;
8584;SDS011;7180;52.742;11.420;2023-07-31T20:04:56;10.10;;;9.60;;
8584;SDS011;7180;52.742;11.420;2023-07-31T20:07:21;9.83;;;9.33;;
8584;SDS011;7180;52.742;11.420;2023-07-31T20:09:47;10.00;;;9.50;;
8584;SDS011;7180;52.742;11.420;2023-07-31T20:12:13;10.40;;;9.90;;
8584;SDS011;7180;52.742;11.420;2023-07-31T20:14:38;11.07;;;10.47;;